Time;durP1;ratioP1;P1;durP2;ratioP2;P2;SDS_P1;SDS_P2;PMS_P1;PMS_P2;Temp;Humidity;BMP_temperature;BMP_pressure;BME280_temperature;BME280_humidity;BME280_pressure;Samples;Min_cycle;Max_cycle;Signal;HPM_P1;HPM_P2
2023/02/24 00:00:50;;;;;;;62.20;30.50;;;;;;;8.40;100.00;98192.08;67565;1282;1016011;-60
2023/02/24 00:03:55;;;;;;;57.60;27.20;;;;;;;8.32;100.00;98186.25;67583;1282;1016453;-60
2023/02/24 00:06:58;;;;;;;67.50;28.40;;;;;;;8.29;100.00;98180.84;67553;1282;1016143;-60
2023/02/24 00:10:01;;;;;;;64.80;29.80;;;;;;;8.20;100.00;98176.58;67602;1282;1018821;-60
2023/02/24 00:13:04;;;;;;;64.30;29.20;;;;;;;8.18;100.00;98173.91;67552;1282;1016810;-59
2023/02/24 00:16:06;;;;;;;63.40;29.90;;;;;;;8.21;100.00;98170.56;67563;1282;1016299;-60
2023/02/24 00:19:10;;;;;;;64.00;29.10;;;;;;;8.36;100.00;98167.40;67547;1282;1016366;-60
2023/02/24 00:22:12;;;;;;;64.00;29.30;;;;;;;8.47;100.00;98166.19;67558;1282;1016400;-60
2023/02/24 00:25:15;;;;;;;61.10;28.30;;;;;;;8.50;100.00;98161.81;67587;1282;1016165;-59
2023/02/24 00:28:17;;;;;;;60.30;27.80;;;;;;;8.48;100.00;98163.53;67619;1281;1016516;-59
2023/02/24 00:31:22;;;;;;;62.10;26.70;;;;;;;8.43;100.00;98160.85;67613;1282;1016424;-60
2023/02/24 00:34:25;;;;;;;61.00;28.30;;;;;;;8.49;100.00;98156.48;67595;1282;1016424;-59
2023/02/24 00:37:28;;;;;;;62.70;30.10;;;;;;;8.68;100.00;98151.10;67582;1282;1016626;-59
2023/02/24 00:40:31;;;;;;;58.50;26.50;;;;;;;8.77;100.00;98149.66;67566;1282;1016686;-59
2023/02/24 00:43:37;;;;;;;56.50;25.20;;;;;;;8.86;100.00;98149.29;67582;1281;1016804;-60
2023/02/24 00:46:40;;;;;;;54.00;23.90;;;;;;;8.89;100.00;98142.62;67562;1282;1016441;-60
2023/02/24 00:49:42;;;;;;;53.50;24.30;;;;;;;8.95;100.00;98141.36;67537;1282;1015814;-59
2023/02/24 00:52:45;;;;;;;55.90;24.10;;;;;;;8.96;100.00;98143.05;67584;1281;1016441;-60
2023/02/24 00:55:47;;;;;;;55.30;24.70;;;;;;;8.84;100.00;98142.59;67605;1282;1016412;-60
2023/02/24 00:58:50;;;;;;;;;;;;;;;8.86;100.00;98139.34;67552;1282;1016520;-59
2023/02/24 01:01:53;;;;;;;55.10;24.10;;;;;;;8.86;100.00;98138.77;67554;1282;1017986;-60
2023/02/24 01:04:56;;;;;;;52.60;23.40;;;;;;;8.85;100.00;98131.91;67579;1282;1016803;-60
2023/02/24 01:07:59;;;;;;;50.80;23.10;;;;;;;8.89;100.00;98127.98;67549;1282;1015979;-60
2023/02/24 01:14:23;;;;;;;47.10;21.70;;;;;;;8.99;100.00;98125.93;67574;1282;1016453;-60
2023/02/24 01:17:25;;;;;;;52.00;21.80;;;;;;;9.03;100.00;98119.39;67571;1282;1016399;-60
2023/02/24 01:20:29;;;;;;;50.30;21.90;;;;;;;8.91;100.00;98113.70;67592;1281;1016476;-59
2023/02/24 01:23:31;;;;;;;49.20;21.60;;;;;;;8.96;100.00;98108.67;67616;1282;1016098;-59
2023/02/24 01:26:34;;;;;;;49.40;23.30;;;;;;;9.04;100.00;98106.23;67528;1282;1016456;-60
2023/02/24 01:29:38;;;;;;;47.90;20.50;;;;;;;9.00;100.00;98101.25;67545;1282;1016310;-60
2023/02/24 01:32:41;;;;;;;49.30;22.60;;;;;;;8.96;100.00;98099.98;67540;1282;1016427;-59
2023/02/24 01:35:43;;;;;;;49.10;21.70;;;;;;;9.00;100.00;98100.44;67562;1282;1018338;-60
2023/02/24 01:38:46;;;;;;;48.50;20.50;;;;;;;8.95;100.00;98093.91;67597;1282;1018489;-60
2023/02/24 01:41:49;;;;;;;47.20;20.40;;;;;;;9.00;100.00;98092.01;67612;1282;1015800;-60
2023/02/24 01:44:51;;;;;;;50.10;19.80;;;;;;;9.00;100.00;98087.34;67588;1282;1016517;-60
2023/02/24 01:47:54;;;;;;;45.40;20.50;;;;;;;8.98;100.00;98085.71;67579;1282;1015996;-60
2023/02/24 01:50:56;;;;;;;44.00;18.90;;;;;;;9.01;100.00;98085.84;67574;1281;1016432;-59
2023/02/24 01:53:59;;;;;;;54.20;19.40;;;;;;;9.00;100.00;98086.42;67537;1282;1017405;-60
2023/02/24 01:57:04;;;;;;;42.70;19.60;;;;;;;8.94;100.00;98084.75;67576;1282;1016309;-60
2023/02/24 02:00:11;;;;;;;46.60;20.40;;;;;;;9.01;100.00;98084.79;67555;1282;1016441;-60
2023/02/24 02:03:14;;;;;;;44.10;20.30;;;;;;;8.88;100.00;98077.46;67582;1282;1018885;-59
2023/02/24 02:06:17;;;;;;;45.80;19.30;;;;;;;8.84;100.00;98075.48;67548;1281;1016060;-60
2023/02/24 02:09:20;;;;;;;39.60;19.10;;;;;;;8.89;100.00;98073.44;67608;1282;1016291;-60
2023/02/24 02:12:23;;;;;;;39.50;18.50;;;;;;;8.95;100.00;98071.05;67573;1282;1016509;-59
2023/02/24 02:15:26;;;;;;;37.30;17.60;;;;;;;9.03;100.00;98062.56;67621;1282;1016367;-60
2023/02/24 02:18:28;;;;;;;40.10;17.60;;;;;;;8.91;100.00;98064.41;67576;1282;1016482;-59
2023/02/24 02:21:31;;;;;;;44.20;17.80;;;;;;;8.95;100.00;98057.30;67571;1282;1018286;-60
2023/02/24 02:24:34;;;;;;;43.20;19.00;;;;;;;8.93;100.00;98051.88;67540;1281;1020143;-60
2023/02/24 02:27:36;;;;;;;42.70;18.00;;;;;;;8.89;100.00;98050.55;67590;1282;1016460;-60
2023/02/24 02:30:42;;;;;;;42.30;17.80;;;;;;;9.00;100.00;98048.91;67555;1282;1016935;-60
2023/02/24 02:33:45;;;;;;;41.20;17.20;;;;;;;9.04;100.00;98048.02;67571;1282;1016417;-59
2023/02/24 02:36:48;;;;;;;40.50;17.60;;;;;;;9.03;100.00;98043.88;67556;1282;1016678;-59
2023/02/24 02:39:51;;;;;;;40.00;18.20;;;;;;;9.04;100.00;98045.55;67551;1282;1016426;-59
2023/02/24 02:42:54;;;;;;;40.00;17.00;;;;;;;8.99;100.00;98039.40;67549;1282;1016443;-60
2023/02/24 02:45:57;;;;;;;43.40;18.30;;;;;;;8.98;100.00;98039.36;67606;1282;1017770;-60
2023/02/24 02:48:59;;;;;;;39.40;17.70;;;;;;;8.96;100.00;98041.05;67590;1282;1016613;-59
2023/02/24 02:52:04;;;;;;;40.00;17.40;;;;;;;8.89;100.00;98034.20;67570;1282;1016466;-60
2023/02/24 02:55:07;;;;;;;41.70;17.60;;;;;;;8.83;100.00;98031.42;67596;1282;1017362;-60
2023/02/24 02:58:09;;;;;;;;;;;;;;;8.80;100.00;98032.82;67604;1282;1016463;-59
2023/02/24 03:01:12;;;;;;;44.40;18.30;;;;;;;8.83;100.00;98025.52;67558;1282;1016443;-59
2023/02/24 03:04:15;;;;;;;41.20;17.90;;;;;;;8.87;100.00;98023.11;67521;1282;1016407;-60
2023/02/24 03:07:18;;;;;;;42.50;18.30;;;;;;;8.97;100.00;98020.21;67554;1282;1016499;-59
2023/02/24 03:10:21;;;;;;;;;;;;;;;8.95;100.00;98013.56;67583;1282;1016598;-60
2023/02/24 03:13:24;;;;;;;40.60;17.50;;;;;;;8.93;100.00;98008.45;67593;1282;1016383;-60
2023/02/24 03:16:27;;;;;;;43.60;18.60;;;;;;;8.93;100.00;98008.84;67584;1282;1016772;-60
2023/02/24 03:19:29;;;;;;;44.60;19.40;;;;;;;8.96;100.00;98005.66;67598;1282;1016489;-60
2023/02/24 03:22:33;;;;;;;;;;;;;;;8.93;100.00;98000.40;67545;1282;1016258;-60
2023/02/24 03:25:37;;;;;;;42.90;17.80;;;;;;;8.88;100.00;97997.27;67554;1282;1016510;-60
2023/02/24 03:28:40;;;;;;;39.00;17.90;;;;;;;8.85;100.00;97993.27;67541;1282;1016437;-60
2023/02/24 03:31:44;;;;;;;46.50;18.80;;;;;;;8.98;100.00;97992.44;67537;1282;1016573;-60
2023/02/24 03:34:47;;;;;;;41.90;17.80;;;;;;;9.04;100.00;97988.37;67584;1282;1016730;-60
2023/02/24 03:37:49;;;;;;;42.60;18.90;;;;;;;9.08;100.00;97987.55;67588;1282;1016440;-60
2023/02/24 03:40:52;;;;;;;45.70;19.30;;;;;;;9.08;100.00;97988.09;67575;1281;1016485;-59
2023/02/24 03:43:54;;;;;;;42.10;18.00;;;;;;;9.08;100.00;97982.38;67550;1281;1016150;-60
2023/02/24 03:46:57;;;;;;;43.00;18.20;;;;;;;9.12;100.00;97980.83;67589;1281;1016073;-60
2023/02/24 03:50:00;;;;;;;41.20;19.10;;;;;;;9.20;100.00;97975.40;67617;1282;1016431;-60
2023/02/24 03:53:02;;;;;;;40.80;18.70;;;;;;;9.24;100.00;97973.39;67550;1282;1016252;-60
2023/02/24 03:56:04;;;;;;;46.20;19.20;;;;;;;9.08;100.00;97968.55;67527;1281;1016640;-60
2023/02/24 03:59:08;;;;;;;42.50;18.70;;;;;;;9.07;100.00;97964.27;67584;1282;1016315;-60
2023/02/24 04:02:10;;;;;;;40.90;17.90;;;;;;;9.08;100.00;97960.70;67538;1282;1016679;-59
2023/02/24 04:05:13;;;;;;;39.70;16.90;;;;;;;9.16;100.00;97961.70;67548;1282;1016420;-60
2023/02/24 04:08:16;;;;;;;43.00;19.80;;;;;;;9.20;100.00;97953.26;67609;1282;1016268;-60
2023/02/24 04:11:19;;;;;;;43.50;18.70;;;;;;;9.14;100.00;97948.21;67545;1281;1015923;-59
2023/02/24 04:14:23;;;;;;;41.20;18.50;;;;;;;9.11;100.00;97942.21;67596;1282;1016014;-59
2023/02/24 04:17:26;;;;;;;41.70;18.10;;;;;;;9.02;100.00;97935.14;67593;1281;1016012;-59
2023/02/24 04:20:29;;;;;;;41.90;18.50;;;;;;;9.02;100.00;97932.52;67536;1281;1019513;-60
2023/02/24 04:23:31;;;;;;;;;;;;;;;9.03;100.00;97924.75;67608;1281;1016824;-60
2023/02/24 04:26:34;;;;;;;42.20;18.10;;;;;;;9.17;100.00;97920.13;67639;1282;1016368;-59
2023/02/24 04:29:36;;;;;;;42.80;18.80;;;;;;;9.10;100.00;97920.09;67556;1282;1019888;-60
2023/02/24 04:32:41;;;;;;;40.60;18.00;;;;;;;9.13;100.00;97916.23;67585;1282;1018751;-60
2023/02/24 04:35:44;;;;;;;43.90;19.20;;;;;;;9.17;100.00;97909.33;67594;1282;1017015;-60
2023/02/24 04:38:46;;;;;;;;;;;;;;;9.20;100.00;97907.52;67589;1282;1018799;-60
2023/02/24 04:41:49;;;;;;;41.00;17.40;;;;;;;9.22;100.00;97906.94;67570;1282;1016324;-60
2023/02/24 04:44:52;;;;;;;40.50;18.10;;;;;;;9.25;100.00;97904.23;67566;1282;1016315;-60
2023/02/24 04:47:59;;;;;;;39.30;17.50;;;;;;;9.35;100.00;97903.56;67586;1282;1016323;-60
2023/02/24 04:51:05;;;;;;;41.60;17.90;;;;;;;9.28;100.00;97900.72;67598;1282;1016339;-60
2023/02/24 04:54:07;;;;;;;43.10;17.90;;;;;;;9.21;100.00;97896.70;67551;1282;1016959;-59
2023/02/24 04:57:11;;;;;;;39.20;18.00;;;;;;;9.19;100.00;97891.55;67603;1282;1016380;-59
2023/02/24 05:00:20;;;;;;;41.00;18.90;;;;;;;9.12;100.00;97884.01;67588;1282;1016711;-60
2023/02/24 05:03:27;;;;;;;39.00;17.90;;;;;;;9.14;100.00;97881.30;67543;1282;1016362;-60
2023/02/24 05:06:29;;;;;;;45.20;18.70;;;;;;;9.15;100.00;97879.14;67547;1282;1016408;-61
2023/02/24 05:09:32;;;;;;;42.60;19.40;;;;;;;9.10;100.00;97875.95;67545;1281;1016436;-60
2023/02/24 05:12:34;;;;;;;41.10;18.90;;;;;;;9.18;100.00;97875.23;67594;1264;1017206;-59
2023/02/24 05:15:37;;;;;;;44.70;19.50;;;;;;;9.20;100.00;97872.16;67576;1282;1016417;-60
2023/02/24 05:18:39;;;;;;;45.00;20.80;;;;;;;9.17;100.00;97866.93;67529;1282;1016403;-61
2023/02/24 05:21:42;;;;;;;41.50;18.30;;;;;;;9.19;100.00;97869.42;67518;1282;1016488;-61
2023/02/24 05:24:46;;;;;;;44.00;18.70;;;;;;;9.22;100.00;97862.56;67589;1282;1015723;-61
2023/02/24 05:27:49;;;;;;;43.30;18.50;;;;;;;9.18;100.00;97863.36;67525;1264;1016487;-60
2023/02/24 05:30:53;;;;;;;;;;;;;;;9.19;100.00;97854.80;64957;1282;6371776;-60
2023/02/24 05:33:57;;;;;;;46.70;19.30;;;;;;;9.27;100.00;97851.57;67548;1282;1016480;-60
2023/02/24 05:37:00;;;;;;;45.00;18.60;;;;;;;9.28;100.00;97857.26;67524;1282;1016251;-60
2023/02/24 05:40:03;;;;;;;43.50;19.80;;;;;;;9.24;100.00;97851.98;67583;1282;1017220;-60
2023/02/24 05:43:06;;;;;;;41.20;18.00;;;;;;;9.30;100.00;97849.30;67557;1282;1016439;-60
2023/02/24 05:46:12;;;;;;;44.90;19.00;;;;;;;9.27;100.00;97841.14;67586;1282;1016248;-60
2023/02/24 05:49:14;;;;;;;44.90;20.70;;;;;;;9.20;100.00;97842.86;67570;1282;1018696;-60
2023/02/24 05:52:17;;;;;;;42.50;19.70;;;;;;;9.09;100.00;97834.68;67577;1282;1016493;-60
2023/02/24 05:55:21;;;;;;;49.10;21.20;;;;;;;9.23;100.00;97834.05;67523;1282;1016731;-60
2023/02/24 05:58:24;;;;;;;46.20;20.60;;;;;;;9.13;100.00;97839.83;67541;1268;1016678;-60
2023/02/24 06:01:30;;;;;;;44.50;19.60;;;;;;;8.99;100.00;97846.55;67574;1282;1016363;-60
2023/02/24 06:04:44;;;;;;;44.50;19.50;;;;;;;9.17;100.00;97839.73;67516;1281;1016314;-60
2023/02/24 06:07:48;;;;;;;;;;;;;;;9.11;100.00;97840.49;67599;1282;1016082;-59
2023/02/24 06:10:50;;;;;;;45.40;19.80;;;;;;;9.10;100.00;97838.49;67542;1282;1016490;-60
2023/02/24 06:13:56;;;;;;;43.50;19.20;;;;;;;9.22;100.00;97834.17;67598;1282;1016401;-60
2023/02/24 06:17:02;;;;;;;45.70;19.80;;;;;;;9.09;100.00;97833.52;67595;1281;1016336;-60
2023/02/24 06:20:12;;;;;;;44.60;19.70;;;;;;;9.02;100.00;97835.59;67527;1282;1016381;-60
2023/02/24 06:23:16;;;;;;;40.90;19.30;;;;;;;9.03;100.00;97838.44;67543;1281;1016482;-60
2023/02/24 06:26:20;;;;;;;49.00;20.10;;;;;;;9.05;100.00;97828.57;67600;1282;1016492;-59
2023/02/24 06:29:28;;;;;;;41.60;20.30;;;;;;;9.10;100.00;97825.20;67559;1281;1016504;-60
2023/02/24 06:32:30;;;;;;;43.00;19.30;;;;;;;9.07;100.00;97823.89;67505;1282;1016485;-60
2023/02/24 06:35:33;;;;;;;42.90;19.80;;;;;;;9.01;100.00;97822.69;67558;1282;1016516;-60
2023/02/24 06:38:35;;;;;;;41.40;20.10;;;;;;;9.03;100.00;97821.39;67572;1282;1016466;-60
2023/02/24 06:41:38;;;;;;;57.20;25.30;;;;;;;9.24;100.00;97820.05;67555;1282;1016376;-60
2023/02/24 06:44:40;;;;;;;44.00;20.90;;;;;;;9.26;100.00;97819.05;67566;1282;1015858;-60
2023/02/24 06:47:43;;;;;;;45.20;22.20;;;;;;;9.30;100.00;97818.91;67526;1282;1016365;-60
2023/02/24 06:50:50;;;;;;;50.00;23.30;;;;;;;9.41;100.00;97812.54;67590;1282;1016457;-60
2023/02/24 06:53:53;;;;;;;47.30;22.30;;;;;;;9.47;100.00;97815.28;67537;1282;1016543;-60
2023/02/24 06:56:56;;;;;;;50.00;24.60;;;;;;;9.43;100.00;97812.39;67559;1282;1016267;-60
2023/02/24 06:59:59;;;;;;;65.60;28.60;;;;;;;9.45;100.00;97817.02;67544;1282;1016177;-61
2023/02/24 07:03:13;;;;;;;56.30;24.90;;;;;;;9.54;100.00;97812.82;67579;1281;1016430;-60
2023/02/24 07:06:20;;;;;;;49.80;23.40;;;;;;;9.47;100.00;97813.88;67584;1282;1017526;-60
2023/02/24 07:09:23;;;;;;;50.90;23.90;;;;;;;9.50;100.00;97805.47;67559;1259;1016140;-60
2023/02/24 07:12:25;;;;;;;46.90;23.50;;;;;;;9.51;100.00;97805.05;67533;1281;1019132;-61
2023/02/24 07:15:30;;;;;;;51.00;25.60;;;;;;;9.53;100.00;97800.20;67583;1281;1018382;-60
2023/02/24 07:18:34;;;;;;;50.60;23.70;;;;;;;9.55;100.00;97792.36;67520;1282;1016497;-60
2023/02/24 07:21:39;;;;;;;47.60;22.90;;;;;;;9.52;100.00;97788.92;67535;1282;1016480;-60
2023/02/24 07:24:44;;;;;;;46.40;23.70;;;;;;;9.54;100.00;97791.02;67552;1281;1016406;-60
2023/02/24 07:27:47;;;;;;;42.40;19.40;;;;;;;9.42;100.00;97783.55;67534;1281;1016376;-59
2023/02/24 07:30:51;;;;;;;;;;;;;;;9.39;100.00;97785.30;67554;1282;1015888;-60
2023/02/24 07:33:54;;;;;;;45.50;22.10;;;;;;;9.36;100.00;97783.83;67560;1282;1016419;-60
2023/02/24 07:36:57;;;;;;;48.40;23.50;;;;;;;9.32;100.00;97782.80;67587;1282;1016516;-59
2023/02/24 07:40:00;;;;;;;47.40;21.70;;;;;;;9.39;100.00;97776.58;67546;1282;1016782;-60
2023/02/24 07:43:06;;;;;;;46.60;21.10;;;;;;;9.43;100.00;97776.46;67536;1282;1016331;-60
2023/02/24 07:46:10;;;;;;;;;;;;;;;9.46;100.00;97776.92;67598;1281;1016426;-60
2023/02/24 07:49:13;;;;;;;45.70;21.90;;;;;;;9.43;100.00;97774.24;67594;1282;1016605;-60
2023/02/24 07:52:16;;;;;;;53.10;23.90;;;;;;;9.39;100.00;97771.38;67551;1282;1016919;-60
2023/02/24 07:55:19;;;;;;;;;;;;;;;9.40;100.00;97770.05;67610;1282;1016261;-60
2023/02/24 07:58:22;;;;;;;55.00;24.30;;;;;;;9.39;100.00;97769.07;67543;1282;1016420;-60
2023/02/24 08:01:26;;;;;;;51.20;24.90;;;;;;;9.34;100.00;97759.30;67555;1281;1016249;-60
2023/02/24 08:04:29;;;;;;;51.10;26.00;;;;;;;9.19;100.00;97758.66;67500;1282;1016460;-59
2023/02/24 08:07:34;;;;;;;49.70;24.30;;;;;;;9.17;100.00;97758.81;67522;1281;1016305;-60
2023/02/24 08:10:39;;;;;;;55.80;25.80;;;;;;;9.18;100.00;97756.69;67589;1282;1016132;-60
2023/02/24 08:13:43;;;;;;;45.80;22.30;;;;;;;9.07;100.00;97754.32;67586;1281;1017138;-60
2023/02/24 08:16:46;;;;;;;48.10;24.40;;;;;;;9.03;100.00;97748.67;67566;1282;1016393;-59
2023/02/24 08:19:49;;;;;;;49.90;25.50;;;;;;;9.12;100.00;97743.45;67574;1281;1016408;-60
2023/02/24 08:22:52;;;;;;;49.80;23.70;;;;;;;9.23;100.00;97733.23;67537;1282;1016434;-60
2023/02/24 08:25:56;;;;;;;50.70;24.70;;;;;;;9.27;100.00;97732.09;67596;1281;1016395;-60
2023/02/24 08:28:59;;;;;;;52.00;27.30;;;;;;;9.20;100.00;97734.02;67601;1281;1018873;-60
2023/02/24 08:32:01;;;;;;;55.30;29.00;;;;;;;9.14;100.00;97730.22;67596;1282;1016609;-60
2023/02/24 08:35:05;;;;;;;;;;;;;;;9.30;100.00;97724.05;67542;1281;1016497;-60
2023/02/24 08:38:08;;;;;;;49.40;23.40;;;;;;;9.29;100.00;97721.86;67536;1281;1015679;-60
2023/02/24 08:41:12;;;;;;;48.50;23.00;;;;;;;9.35;100.00;97717.41;67584;1281;1016472;-60
2023/02/24 08:44:17;;;;;;;50.40;25.30;;;;;;;9.41;100.00;97710.67;67526;1281;1016407;-60
2023/02/24 08:47:29;;;;;;;49.30;25.20;;;;;;;9.47;100.00;97706.34;67539;1282;1016483;-60
2023/02/24 08:50:32;;;;;;;48.10;24.70;;;;;;;9.38;100.00;97705.13;67526;1281;1016273;-60
2023/02/24 08:53:39;;;;;;;51.00;25.50;;;;;;;9.22;100.00;97701.41;67568;1281;1016130;-60
2023/02/24 08:56:43;;;;;;;50.40;25.50;;;;;;;9.29;100.00;97699.33;67546;1281;1016482;-61
2023/02/24 08:59:48;;;;;;;44.40;22.20;;;;;;;9.33;100.00;97696.05;67588;1282;1015957;-60
2023/02/24 09:02:55;;;;;;;45.70;22.90;;;;;;;9.22;100.00;97696.69;67575;1281;1016499;-59
2023/02/24 09:05:57;;;;;;;43.30;21.80;;;;;;;9.22;100.00;97695.63;67599;1282;1016489;-60
2023/02/24 09:09:19;;;;;;;43.30;21.90;;;;;;;9.28;100.00;97695.58;67587;1282;1016260;-60
2023/02/24 09:12:23;;;;;;;46.60;23.50;;;;;;;9.21;100.00;97691.36;67540;1282;1016388;-61
2023/02/24 09:15:40;;;;;;;45.40;22.70;;;;;;;9.32;100.00;97689.20;67583;1281;1017109;-61
2023/02/24 09:19:25;;;;;;;50.30;23.40;;;;;;;9.37;100.00;97686.56;67547;1282;1016670;-61
2023/02/24 09:22:28;;;;;;;42.60;20.50;;;;;;;9.63;100.00;97685.48;67607;1281;1016786;-60
2023/02/24 09:25:44;;;;;;;45.80;23.40;;;;;;;9.40;100.00;97685.80;67518;1282;1016823;-62
2023/02/24 09:28:53;;;;;;;43.30;21.70;;;;;;;9.18;100.00;97685.29;67503;1281;1016489;-61
2023/02/24 09:32:03;;;;;;;40.80;19.90;;;;;;;9.14;100.00;97680.70;67566;1282;1016382;-60
2023/02/24 09:35:06;;;;;;;39.20;18.90;;;;;;;9.19;100.00;97674.27;67549;1282;1017319;-60
2023/02/24 09:38:08;;;;;;;46.30;21.70;;;;;;;9.17;100.00;97677.33;67525;1282;1016688;-60
2023/02/24 09:41:28;;;;;;;42.20;19.90;;;;;;;9.16;100.00;97674.30;67505;1282;1016497;-60
2023/02/24 09:44:32;;;;;;;41.00;18.80;;;;;;;9.25;100.00;97671.74;67564;1282;1018614;-60
2023/02/24 09:47:55;;;;;;;37.40;18.90;;;;;;;9.25;100.00;97669.63;67509;1282;1016427;-60
2023/02/24 09:51:04;;;;;;;38.60;18.80;;;;;;;9.34;100.00;97665.69;67567;1282;1016423;-60
2023/02/24 09:54:08;;;;;;;41.60;18.00;;;;;;;9.37;100.00;97662.47;67531;1282;1015991;-60
2023/02/24 09:57:15;;;;;;;38.10;18.30;;;;;;;9.34;100.00;97663.36;67522;1281;1016215;-60
2023/02/24 10:00:32;;;;;;;35.20;16.40;;;;;;;9.38;100.00;97661.83;67569;1282;1020064;-60
2023/02/24 10:03:46;;;;;;;37.70;17.30;;;;;;;9.48;100.00;97660.63;67510;1281;1018501;-60
2023/02/24 10:06:49;;;;;;;33.30;15.50;;;;;;;9.63;100.00;97660.51;67533;1282;1016870;-60
2023/02/24 10:09:52;;;;;;;33.20;15.60;;;;;;;9.66;100.00;97658.70;67542;1282;1017550;-60
2023/02/24 10:12:57;;;;;;;34.80;15.10;;;;;;;9.62;100.00;97660.42;67557;1282;1016946;-60
2023/02/24 10:15:59;;;;;;;35.50;15.70;;;;;;;9.57;100.00;97659.42;67517;1282;1016418;-60
2023/02/24 10:19:13;;;;;;;31.40;13.80;;;;;;;9.49;100.00;97651.60;67546;1282;1016423;-61
2023/02/24 10:22:28;;;;;;;29.10;12.70;;;;;;;9.56;100.00;97645.19;67498;1281;1018323;-60
2023/02/24 10:25:34;;;;;;;27.70;11.90;;;;;;;9.57;100.00;97642.96;67531;1282;1018077;-60
2023/02/24 10:28:37;;;;;;;32.40;13.90;;;;;;;9.60;100.00;97642.06;67508;1281;1016351;-61
2023/02/24 10:31:40;;;;;;;30.00;12.80;;;;;;;9.67;100.00;97635.45;67573;1282;1016244;-60
2023/02/24 10:34:43;;;;;;;31.60;13.70;;;;;;;9.63;100.00;97634.38;67535;1281;1016297;-60
2023/02/24 10:37:46;;;;;;;28.40;11.90;;;;;;;9.69;100.00;97626.05;67521;1281;1016379;-60
2023/02/24 10:40:55;;;;;;;30.10;13.40;;;;;;;9.69;100.00;97622.17;67533;1281;1016020;-60
2023/02/24 10:44:11;;;;;;;29.30;13.10;;;;;;;9.73;100.00;97621.37;67556;1282;1016333;-61
2023/02/24 10:47:13;;;;;;;29.30;12.40;;;;;;;9.82;100.00;97618.45;67554;1282;1016294;-60
2023/02/24 10:50:16;;;;;;;28.20;12.20;;;;;;;9.75;100.00;97603.97;67531;1282;1016862;-60
2023/02/24 10:53:33;;;;;;;31.50;13.30;;;;;;;9.54;100.00;97610.95;67553;1281;1016460;-60
2023/02/24 10:56:43;;;;;;;30.50;12.50;;;;;;;9.52;100.00;97606.89;67540;1281;1016530;-60
2023/02/24 11:00:29;;;;;;;29.30;12.20;;;;;;;9.66;100.00;97597.63;67542;1281;1016482;-61
2023/02/24 11:03:35;;;;;;;28.40;11.90;;;;;;;9.65;100.00;97592.10;67580;1281;1016415;-60
2023/02/24 11:09:56;;;;;;;27.80;12.60;;;;;;;9.93;100.00;97579.71;67544;1266;1016290;-61
2023/02/24 11:19:50;;;;;;;27.30;11.00;;;;;;;10.05;100.00;97559.02;67587;1282;1016295;-60
2023/02/24 11:22:54;;;;;;;26.10;11.20;;;;;;;10.02;100.00;97558.89;67593;1282;1016334;-60
2023/02/24 11:25:57;;;;;;;27.40;12.00;;;;;;;9.90;100.00;97561.77;67588;1282;1016235;-60
2023/02/24 11:28:59;;;;;;;25.40;10.60;;;;;;;9.91;100.00;97555.35;67590;1282;1016665;-60
2023/02/24 11:32:02;;;;;;;29.60;12.30;;;;;;;9.80;100.00;97551.71;67579;1282;1016255;-59
2023/02/24 11:35:04;;;;;;;29.30;12.10;;;;;;;9.67;100.00;97551.79;67521;1281;1016364;-60
2023/02/24 11:38:08;;;;;;;;;;;;;;;9.72;100.00;97546.35;67611;1282;1016318;-60
2023/02/24 11:41:11;;;;;;;29.60;12.40;;;;;;;9.59;100.00;97544.27;67610;1282;1017006;-60
2023/02/24 11:44:13;;;;;;;28.80;11.70;;;;;;;9.54;100.00;97542.52;67595;1281;1016481;-60
2023/02/24 11:47:16;;;;;;;;;;;;;;;9.43;100.00;97540.27;67544;1282;1016405;-60
2023/02/24 11:50:19;;;;;;;30.80;13.20;;;;;;;9.34;100.00;97539.02;67593;1281;1016442;-60
2023/02/24 11:53:21;;;;;;;31.60;13.60;;;;;;;9.21;100.00;97538.07;67584;1281;1017159;-59
2023/02/24 11:56:24;;;;;;;30.00;13.60;;;;;;;9.21;100.00;97535.40;67524;1282;1016510;-60
2023/02/24 11:59:27;;;;;;;32.40;14.90;;;;;;;9.29;100.00;97529.59;67582;1282;1016419;-60
2023/02/24 12:02:31;;;;;;;32.00;14.00;;;;;;;9.46;100.00;97523.94;67557;1282;1018541;-60
2023/02/24 12:05:35;;;;;;;30.10;13.30;;;;;;;9.51;100.00;97515.54;67560;1282;1018161;-60
2023/02/24 12:08:38;;;;;;;31.30;13.40;;;;;;;9.64;100.00;97513.31;67527;1282;1016464;-59
2023/02/24 12:11:40;;;;;;;28.00;11.40;;;;;;;9.69;100.00;97514.84;67540;1282;1016379;-60
2023/02/24 12:14:43;;;;;;;28.60;12.50;;;;;;;9.77;100.00;97506.86;67615;1282;1016109;-61
2023/02/24 12:17:45;;;;;;;29.00;11.90;;;;;;;9.84;100.00;97499.19;67592;1282;1016003;-61
2023/02/24 12:20:48;;;;;;;26.80;10.90;;;;;;;9.86;100.00;97491.30;67559;1281;1016472;-60
2023/02/24 12:23:52;;;;;;;24.40;9.50;;;;;;;9.79;100.00;97488.73;67572;1282;1016443;-60
2023/02/24 12:26:54;;;;;;;26.90;11.00;;;;;;;9.72;100.00;97485.80;67548;1281;1016364;-60
2023/02/24 12:29:57;;;;;;;25.30;9.90;;;;;;;9.62;100.00;97485.22;67530;1281;1015946;-61
2023/02/24 12:32:59;;;;;;;26.70;10.30;;;;;;;9.52;100.00;97479.55;67589;1282;1016818;-59
2023/02/24 12:36:02;;;;;;;26.20;11.10;;;;;;;9.41;100.00;97467.48;67579;1282;1015957;-60
2023/02/24 12:39:06;;;;;;;25.30;10.10;;;;;;;9.32;100.00;97460.60;67518;1281;1016487;-60
2023/02/24 12:42:08;;;;;;;24.10;10.00;;;;;;;9.33;100.00;97469.15;67551;1281;1016368;-60
2023/02/24 12:45:11;;;;;;;26.50;10.00;;;;;;;9.23;100.00;97467.26;67534;1281;1016304;-60
2023/02/24 12:48:13;;;;;;;24.90;9.60;;;;;;;9.17;100.00;97469.61;67584;1282;1016375;-60
2023/02/24 12:51:16;;;;;;;28.60;11.20;;;;;;;9.10;100.00;97468.46;67594;1282;1016490;-59
2023/02/24 12:54:18;;;;;;;32.20;12.20;;;;;;;9.18;100.00;97460.85;67533;1282;1016479;-60
2023/02/24 12:57:21;;;;;;;28.30;12.20;;;;;;;9.38;100.00;97452.71;67543;1281;1016257;-60
2023/02/24 13:00:23;;;;;;;29.50;12.70;;;;;;;9.56;100.00;97446.95;67572;1281;1016367;-60
2023/02/24 13:03:26;;;;;;;27.60;11.70;;;;;;;9.65;100.00;97437.17;67567;1281;1016077;-60
2023/02/24 13:06:29;;;;;;;26.00;10.90;;;;;;;9.49;100.00;97431.43;67494;1281;1018111;-60
2023/02/24 13:09:31;;;;;;;31.00;11.80;;;;;;;9.47;100.00;97428.77;67578;1281;1016739;-59
2023/02/24 13:12:34;;;;;;;31.80;12.10;;;;;;;9.50;100.00;97430.98;67554;1264;1016363;-60
2023/02/24 13:15:36;;;;;;;28.80;11.70;;;;;;;9.51;100.00;97428.14;67583;1281;1016348;-60
2023/02/24 13:18:39;;;;;;;29.70;12.10;;;;;;;9.42;100.00;97428.98;67509;1281;1016547;-61
2023/02/24 13:21:41;;;;;;;;;;;;;;;9.51;100.00;97427.05;67504;1281;1016531;-60
2023/02/24 13:24:44;;;;;;;31.40;13.50;;;;;;;9.66;100.00;97415.11;67575;1281;1018846;-60
2023/02/24 13:27:46;;;;;;;35.10;15.10;;;;;;;9.85;100.00;97404.50;67592;1281;1017442;-60
2023/02/24 13:30:48;;;;;;;30.80;13.80;;;;;;;9.90;100.00;97399.48;67574;1282;1016478;-61
2023/02/24 13:33:51;;;;;;;33.10;14.90;;;;;;;10.00;100.00;97392.75;67542;1281;1016385;-60
2023/02/24 13:36:54;;;;;;;31.40;13.70;;;;;;;9.93;100.00;97384.63;67581;1282;1017427;-60
2023/02/24 13:39:57;;;;;;;26.30;11.00;;;;;;;10.12;100.00;97376.83;67575;1281;1016367;-60
2023/02/24 13:42:59;;;;;;;27.80;11.50;;;;;;;10.05;100.00;97379.83;67556;1282;1016673;-60
2023/02/24 13:46:01;;;;;;;28.50;11.30;;;;;;;10.15;100.00;97383.56;67535;1281;1016499;-60
2023/02/24 13:49:04;;;;;;;27.30;11.70;;;;;;;10.10;100.00;97383.08;67548;1282;1017933;-60
2023/02/24 13:52:06;;;;;;;30.20;13.60;;;;;;;9.97;100.00;97376.41;67575;1282;1016294;-61
2023/02/24 13:55:09;;;;;;;30.70;12.80;;;;;;;9.83;100.00;97370.04;67566;1281;1016469;-60
2023/02/24 13:58:12;;;;;;;29.50;12.80;;;;;;;9.80;100.00;97366.43;67537;1282;1016862;-60
2023/02/24 14:01:14;;;;;;;29.40;12.50;;;;;;;9.90;100.00;97364.13;67586;1282;1016298;-60
2023/02/24 14:04:17;;;;;;;30.80;13.50;;;;;;;10.02;100.00;97364.18;67569;1282;1020271;-60